Terminal Aerodrome Forecast
Issued by NWS Mt. Holly, NJ

Home | Current Version | Previous Version | Text Only | Print | Product List | Glossary On
Versions: 1 2 3 4 5 6 7 8 9 10 11 12 13 14
000
FTUS41 KPHI 201700
TAFABE
TAF
KABE 201740Z 2018/2118 23007KT P6SM SCT060 BKN250
      TEMPO 2018/2020 BKN060
     FM202300 VRB03KT P6SM VCSH BKN050 OVC100
      TEMPO 2100/2104 6SM -SHRA
     FM210500 VRB03KT P6SM BKN050=

USA.gov is the U.S. government's official web portal to all federal, state and local government web resources and services.